Time;durP1;ratioP1;P1;durP2;ratioP2;P2;SDS_P1;SDS_P2;PMS_P1;PMS_P2;Temp;Humidity;BMP_temperature;BMP_pressure;BME280_temperature;BME280_humidity;BME280_pressure;Samples;Min_cycle;Max_cycle;Signal;HPM_P1;HPM_P2
2022/06/25 00:00:54;;;;;;;15.48;14.07;;;18.60;99.90;;;;;;6188086;23;20020;-86
2022/06/25 00:03:20;;;;;;;16.50;14.93;;;18.70;99.90;;;;;;6189100;23;20071;-87
2022/06/25 00:05:46;;;;;;;16.88;15.07;;;18.60;99.90;;;;;;6163940;23;20314;-86
2022/06/25 00:08:12;;;;;;;15.52;14.02;;;18.60;99.90;;;;;;6162593;23;20017;-87
2022/06/25 00:10:38;;;;;;;16.00;14.60;;;18.70;99.90;;;;;;6214282;23;20047;-87
2022/06/25 00:13:03;;;;;;;17.23;15.63;;;18.70;99.90;;;;;;6188181;23;20102;-86
2022/06/25 00:15:29;;;;;;;17.13;15.48;;;18.60;99.90;;;;;;6163079;23;20027;-86
2022/06/25 00:17:58;;;;;;;15.98;14.48;;;18.60;99.90;;;;;;6209773;23;20095;-86
2022/06/25 00:20:24;;;;;;;18.65;16.85;;;18.60;99.90;;;;;;6188146;23;20092;-86
2022/06/25 00:22:49;;;;;;;20.80;18.77;;;18.60;99.90;;;;;;6188808;23;20387;-86
2022/06/25 00:25:16;;;;;;;20.20;18.40;;;18.70;99.90;;;;;;6187952;23;20031;-87
2022/06/25 00:27:42;;;;;;;18.40;16.52;;;18.80;99.90;;;;;;6186905;23;20023;-86
2022/06/25 00:30:08;;;;;;;20.67;18.48;;;18.80;99.90;;;;;;6163358;23;20004;-86
2022/06/25 00:32:34;;;;;;;19.83;17.90;;;18.70;99.90;;;;;;6188034;23;20048;-86
2022/06/25 00:35:01;;;;;;;19.27;17.27;;;18.70;99.90;;;;;;6187495;23;20044;-86
2022/06/25 00:37:27;;;;;;;19.52;17.63;;;18.70;99.90;;;;;;6212519;23;20052;-88
2022/06/25 00:39:53;;;;;;;19.77;17.63;;;18.80;99.90;;;;;;6186174;23;20016;-86
2022/06/25 00:42:19;;;;;;;18.40;16.70;;;18.80;99.90;;;;;;6187707;23;20017;-86
2022/06/25 00:44:45;;;;;;;20.90;18.75;;;18.80;99.90;;;;;;6185646;23;20017;-86
2022/06/25 00:47:12;;;;;;;18.95;17.15;;;18.70;99.90;;;;;;6186661;23;20500;-87
2022/06/25 00:49:39;;;;;;;21.10;18.83;;;18.70;99.90;;;;;;6212744;23;20015;-86
2022/06/25 00:52:11;;;;;;;20.13;18.10;;;18.70;99.90;;;;;;6188486;23;20096;-87
2022/06/25 00:54:39;;;;;;;20.15;18.13;;;18.70;99.90;;;;;;6188220;23;20377;-86
2022/06/25 00:57:07;;;;;;;19.50;17.50;;;18.60;99.90;;;;;;6188252;23;20336;-87
2022/06/25 00:59:42;;;;;;;19.80;17.90;;;18.60;99.90;;;;;;6212664;23;20055;-87
2022/06/25 01:02:08;;;;;;;18.38;16.63;;;18.60;99.90;;;;;;6188548;23;20081;-87
2022/06/25 01:04:37;;;;;;;17.92;16.05;;;18.60;99.90;;;;;;6187864;23;20345;-86
2022/06/25 01:07:03;;;;;;;16.85;15.32;;;18.70;99.90;;;;;;6187919;23;20013;-87
2022/06/25 01:09:29;;;;;;;16.85;15.25;;;18.50;99.90;;;;;;6162891;23;20017;-87
2022/06/25 01:11:54;;;;;;;17.95;16.10;;;18.60;99.90;;;;;;6187689;23;20024;-89
2022/06/25 01:14:20;;;;;;;17.50;15.80;;;18.40;99.90;;;;;;6186305;23;20016;-87
2022/06/25 01:16:46;;;;;;;16.73;15.00;;;18.40;99.90;;;;;;6186984;23;20341;-88
2022/06/25 01:19:12;;;;;;;16.35;14.85;;;18.30;99.90;;;;;;6162768;23;20012;-87
2022/06/25 01:21:40;;;;;;;16.38;14.80;;;18.00;99.90;;;;;;6186781;23;20012;-87
2022/06/25 01:24:06;;;;;;;16.75;15.07;;;17.90;99.90;;;;;;6187305;23;20063;-88
2022/06/25 01:26:36;;;;;;;16.17;14.70;;;17.70;99.90;;;;;;6163744;23;20067;-87
2022/06/25 01:29:03;;;;;;;15.95;14.45;;;17.60;99.90;;;;;;6188000;23;20023;-87
2022/06/25 01:31:32;;;;;;;16.27;14.60;;;17.60;99.90;;;;;;6190654;23;20058;-87
2022/06/25 01:33:58;;;;;;;16.48;14.82;;;17.50;99.90;;;;;;6140451;23;20017;-86
2022/06/25 01:36:25;;;;;;;16.77;15.13;;;17.50;99.90;;;;;;6190222;23;20019;-86
2022/06/25 01:38:51;;;;;;;15.85;14.25;;;17.60;99.90;;;;;;6189603;23;20012;-86
2022/06/25 01:41:17;;;;;;;14.13;12.73;;;17.50;99.90;;;;;;6188821;23;20008;-87
2022/06/25 01:43:43;;;;;;;15.32;13.80;;;17.50;99.90;;;;;;6164802;23;20020;-87
2022/06/25 01:46:09;;;;;;;15.45;13.85;;;17.50;99.90;;;;;;6140993;23;20083;-87
2022/06/25 01:48:35;;;;;;;14.48;13.07;;;17.60;99.90;;;;;;6188303;23;20020;-87
2022/06/25 01:51:01;;;;;;;15.30;13.73;;;17.60;99.90;;;;;;6188726;23;20023;-87
2022/06/25 01:53:27;;;;;;;15.10;13.52;;;17.70;99.90;;;;;;6163046;23;20023;-87
2022/06/25 01:55:53;;;;;;;13.88;12.57;;;17.60;99.90;;;;;;6190620;23;20012;-88
2022/06/25 01:58:19;;;;;;;14.30;12.88;;;17.60;99.90;;;;;;6189329;23;20013;-88
2022/06/25 02:00:45;;;;;;;13.60;12.20;;;17.70;99.90;;;;;;6164274;23;20019;-87
2022/06/25 02:03:12;;;;;;;13.88;12.52;;;17.70;99.90;;;;;;6188555;23;20009;-87
2022/06/25 02:08:23;;;;;;;14.40;12.98;;;17.60;99.90;;;;;;6215086;23;20021;-88
2022/06/25 02:10:49;;;;;;;14.35;12.95;;;17.70;99.90;;;;;;6189486;23;20665;-89
2022/06/25 02:13:16;;;;;;;15.73;14.07;;;17.80;99.90;;;;;;6164175;23;20016;-88
2022/06/25 02:15:42;;;;;;;15.07;13.68;;;17.70;99.90;;;;;;6188166;23;20063;-88
2022/06/25 02:18:10;;;;;;;14.95;13.45;;;17.70;99.90;;;;;;6188747;23;20052;-87
2022/06/25 02:20:37;;;;;;;13.27;11.98;;;17.70;99.90;;;;;;6188574;23;20009;-88
2022/06/25 02:23:04;;;;;;;13.35;12.05;;;17.10;99.90;;;;;;6190085;23;20464;-89
2022/06/25 02:25:30;;;;;;;13.07;11.95;;;17.80;99.90;;;;;;6189066;23;20106;-87
2022/06/25 02:27:56;;;;;;;13.43;12.23;;;17.80;99.90;;;;;;6165334;23;20012;-87
2022/06/25 02:30:22;;;;;;;15.15;13.65;;;17.70;99.90;;;;;;6188768;23;20090;-87
2022/06/25 02:32:48;;;;;;;13.10;11.90;;;17.90;99.90;;;;;;6189534;23;20016;-88
2022/06/25 02:35:13;;;;;;;12.38;11.18;;;17.80;99.90;;;;;;6189540;23;20480;-88
2022/06/25 02:37:39;;;;;;;12.90;11.70;;;17.70;99.90;;;;;;6190033;23;20054;-88
2022/06/25 02:40:06;;;;;;;12.90;11.70;;;17.80;99.90;;;;;;6188929;23;20024;-87
2022/06/25 02:42:42;;;;;;;13.70;12.43;;;17.80;99.90;;;;;;6188225;23;20024;-88
2022/06/25 02:45:09;;;;;;;14.05;12.60;;;17.70;99.90;;;;;;6190032;23;20023;-90
2022/06/25 02:47:35;;;;;;;12.57;11.38;;;17.60;99.90;;;;;;6190003;23;20020;-88
2022/06/25 02:50:02;;;;;;;12.63;11.50;;;17.70;99.90;;;;;;6188516;23;20480;-88
2022/06/25 02:52:27;;;;;;;12.77;11.48;;;17.60;99.90;;;;;;6189311;23;20020;-90
2022/06/25 02:54:54;;;;;;;13.13;11.88;;;17.70;99.90;;;;;;6140690;23;20009;-89
2022/06/25 03:00:08;;;;;;;14.17;12.87;;;17.50;99.90;;;;;;6214697;23;20012;-89
2022/06/25 03:02:34;;;;;;;13.18;11.98;;;17.70;99.90;;;;;;6189778;23;20244;-90
2022/06/25 03:05:00;;;;;;;14.02;12.73;;;17.70;99.90;;;;;;6164829;23;20460;-88
2022/06/25 03:07:26;;;;;;;13.82;12.48;;;17.70;99.90;;;;;;6138365;23;20016;-89
2022/06/25 03:09:54;;;;;;;13.32;11.75;;;17.80;99.90;;;;;;6189093;23;20021;-89
2022/06/25 03:12:20;;;;;;;12.60;11.45;;;17.70;99.90;;;;;;6164875;23;20369;-89
2022/06/25 03:14:46;;;;;;;12.02;10.98;;;17.80;99.90;;;;;;6189311;23;20012;-89
2022/06/25 03:17:12;;;;;;;12.07;10.85;;;17.80;99.90;;;;;;6164413;23;20329;-89
2022/06/25 03:19:38;;;;;;;12.13;10.90;;;17.80;99.90;;;;;;6188846;23;20019;-86
2022/06/25 03:22:04;;;;;;;11.77;10.73;;;17.90;99.90;;;;;;6188750;23;20009;-87
2022/06/25 03:24:29;;;;;;;11.88;10.88;;;17.90;99.90;;;;;;6163199;23;20092;-87
2022/06/25 03:26:55;;;;;;;11.55;10.45;;;18.00;99.90;;;;;;6189012;23;20048;-87
2022/06/25 03:29:21;;;;;;;11.00;10.00;;;18.00;99.90;;;;;;6163173;23;20052;-89
2022/06/25 03:31:50;;;;;;;12.90;11.63;;;17.90;99.90;;;;;;6164002;23;20013;-88
2022/06/25 03:34:15;;;;;;;11.20;10.05;;;17.90;99.90;;;;;;6164479;23;20016;-89
2022/06/25 03:36:41;;;;;;;10.88;9.88;;;17.90;99.90;;;;;;6163724;23;20397;-88
2022/06/25 03:39:07;;;;;;;11.43;10.32;;;17.90;99.90;;;;;;6189127;23;20092;-88
2022/06/25 03:41:33;;;;;;;10.88;9.75;;;17.90;99.90;;;;;;6189432;23;20044;-88
2022/06/25 03:44:02;;;;;;;11.50;10.30;;;17.80;99.90;;;;;;6188794;23;20063;-88
2022/06/25 03:46:28;;;;;;;11.45;10.35;;;17.70;99.90;;;;;;6188350;23;20020;-87
2022/06/25 03:48:54;;;;;;;10.73;9.80;;;17.50;99.90;;;;;;6188258;23;20024;-88
2022/06/25 03:51:19;;;;;;;10.57;9.48;;;17.30;99.90;;;;;;6188625;23;20021;-87
2022/06/25 03:53:45;;;;;;;11.00;9.90;;;17.30;99.90;;;;;;6187032;23;20621;-87
2022/06/25 03:56:12;;;;;;;11.07;10.07;;;17.20;99.90;;;;;;6188304;23;20020;-87
2022/06/25 03:58:38;;;;;;;10.63;9.63;;;17.30;99.90;;;;;;6138522;23;20333;-87
2022/06/25 04:01:05;;;;;;;10.73;9.73;;;17.20;99.90;;;;;;6188173;23;20110;-89
2022/06/25 04:03:31;;;;;;;12.65;10.60;;;17.30;99.90;;;;;;6188540;23;20114;-88
2022/06/25 04:05:57;;;;;;;12.02;10.82;;;17.40;99.90;;;;;;6164220;23;20016;-88
2022/06/25 04:08:25;;;;;;;11.77;10.68;;;17.40;99.90;;;;;;6188093;23;20019;-87
2022/06/25 04:10:51;;;;;;;11.57;10.57;;;17.40;99.90;;;;;;6188031;23;20016;-88
2022/06/25 04:13:17;;;;;;;12.00;10.80;;;17.00;99.90;;;;;;6188929;23;20016;-88
2022/06/25 04:15:43;;;;;;;11.35;10.25;;;17.10;99.90;;;;;;6162945;23;20020;-87
2022/06/25 04:18:09;;;;;;;10.75;9.70;;;17.60;99.90;;;;;;6188237;23;20040;-86
2022/06/25 04:20:35;;;;;;;10.73;9.73;;;17.80;99.90;;;;;;6162249;23;20083;-87
2022/06/25 04:23:00;;;;;;;12.27;10.80;;;17.90;99.90;;;;;;6163703;23;20062;-87
2022/06/25 04:25:26;;;;;;;12.70;11.50;;;17.90;99.90;;;;;;6188607;23;20012;-89
2022/06/25 04:30:36;;;;;;;12.88;11.57;;;17.80;99.90;;;;;;6192725;23;20013;-86
2022/06/25 04:33:02;;;;;;;12.13;10.93;;;18.00;99.90;;;;;;6139224;23;20017;-87
2022/06/25 04:35:28;;;;;;;10.57;9.50;;;17.90;99.90;;;;;;6188523;23;20012;-87
2022/06/25 04:37:54;;;;;;;11.65;10.00;;;17.90;99.90;;;;;;6188058;23;20032;-86
2022/06/25 04:40:20;;;;;;;11.48;10.48;;;18.00;99.90;;;;;;6163698;23;20437;-87
2022/06/25 04:42:46;;;;;;;11.88;10.77;;;16.70;99.90;;;;;;6188109;23;20092;-86
2022/06/25 04:45:12;;;;;;;11.13;10.02;;;17.90;99.90;;;;;;6139020;23;20023;-87
2022/06/25 04:47:38;;;;;;;10.30;9.38;;;17.90;99.90;;;;;;6188747;23;20012;-86
2022/06/25 04:50:06;;;;;;;12.77;10.35;;;18.00;99.90;;;;;;6193079;23;20075;-86
2022/06/25 04:52:32;;;;;;;10.63;9.55;;;18.20;99.90;;;;;;6165309;23;20021;-87
2022/06/25 04:54:59;;;;;;;11.50;10.27;;;18.00;99.90;;;;;;6186961;23;20471;-87
2022/06/25 04:57:26;;;;;;;11.48;10.07;;;18.00;99.90;;;;;;6187562;23;20692;-88
2022/06/25 04:59:51;;;;;;;11.35;10.25;;;18.20;99.90;;;;;;6188601;23;20100;-87
2022/06/25 05:02:17;;;;;;;11.77;10.68;;;18.20;99.90;;;;;;6138065;23;20038;-88
2022/06/25 05:04:43;;;;;;;11.75;10.75;;;18.20;99.90;;;;;;6163981;23;20348;-88
2022/06/25 05:07:09;;;;;;;10.90;9.75;;;18.10;99.90;;;;;;6214557;23;20019;-88
2022/06/25 05:09:35;;;;;;;10.15;9.25;;;18.20;99.90;;;;;;6164753;23;20441;-87
2022/06/25 05:12:00;;;;;;;10.75;9.65;;;18.20;99.90;;;;;;6189487;23;20023;-88
2022/06/25 05:14:26;;;;;;;10.38;9.38;;;18.20;99.90;;;;;;6165140;23;20016;-87
2022/06/25 05:16:53;;;;;;;10.10;9.10;;;18.10;99.90;;;;;;6165594;23;20075;-87
2022/06/25 05:19:19;;;;;;;11.25;9.13;;;18.00;99.90;;;;;;6165480;23;20091;-87
2022/06/25 05:21:45;;;;;;;10.40;9.45;;;18.30;99.90;;;;;;6164575;23;20039;-88
2022/06/25 05:24:11;;;;;;;11.77;9.65;;;18.30;99.90;;;;;;6164178;23;20012;-88
2022/06/25 05:26:37;;;;;;;10.02;9.02;;;18.10;99.90;;;;;;6164077;23;20012;-88
2022/06/25 05:29:03;;;;;;;10.50;9.50;;;18.20;99.90;;;;;;6165624;23;20055;-87
2022/06/25 05:31:29;;;;;;;9.65;8.65;;;18.30;99.90;;;;;;6189047;23;20013;-88
2022/06/25 05:33:56;;;;;;;10.57;8.70;;;18.30;99.90;;;;;;6165755;23;20017;-88
2022/06/25 05:36:22;;;;;;;10.25;9.15;;;18.10;99.90;;;;;;6189103;23;20396;-87
2022/06/25 05:38:47;;;;;;;9.15;8.30;;;18.40;99.90;;;;;;6190534;23;20016;-87
2022/06/25 05:41:14;;;;;;;9.90;8.90;;;18.30;99.90;;;;;;6163573;23;20013;-88
2022/06/25 05:43:40;;;;;;;9.45;8.52;;;18.40;99.90;;;;;;6159581;23;20035;-88
2022/06/25 05:46:07;;;;;;;8.85;8.05;;;18.40;99.90;;;;;;6161945;23;20052;-88
2022/06/25 05:48:34;;;;;;;9.93;9.00;;;18.20;99.90;;;;;;6188487;23;20023;-88
2022/06/25 05:51:01;;;;;;;9.75;8.85;;;18.30;99.90;;;;;;6190112;23;20091;-87
2022/06/25 05:53:27;;;;;;;9.15;8.20;;;18.30;99.90;;;;;;6187558;23;20017;-87
2022/06/25 05:55:53;;;;;;;11.02;8.75;;;18.40;99.90;;;;;;6164916;23;20023;-87
2022/06/25 05:58:22;;;;;;;9.88;8.55;;;18.50;99.90;;;;;;6188158;23;20013;-87
2022/06/25 06:00:48;;;;;;;8.50;7.07;;;18.50;99.90;;;;;;6187788;23;20013;-85
2022/06/25 06:03:14;;;;;;;9.43;8.52;;;18.60;99.90;;;;;;6164690;23;20009;-86
2022/06/25 06:05:39;;;;;;;9.10;7.50;;;18.50;99.90;;;;;;6163038;23;20337;-85
2022/06/25 06:08:06;;;;;;;9.85;8.82;;;18.60;99.90;;;;;;6189391;23;20015;-89
2022/06/25 06:10:33;;;;;;;8.63;7.78;;;18.60;99.90;;;;;;6188425;23;20015;-87
2022/06/25 06:12:58;;;;;;;8.88;8.00;;;18.80;99.90;;;;;;6163666;23;20043;-87
2022/06/25 06:15:24;;;;;;;9.05;8.07;;;19.00;99.90;;;;;;6187595;23;20437;-87
2022/06/25 06:17:50;;;;;;;9.55;8.57;;;19.10;99.90;;;;;;6162654;23;20051;-87
2022/06/25 06:20:16;;;;;;;8.27;7.47;;;18.90;99.90;;;;;;6187938;23;20005;-86
2022/06/25 06:22:41;;;;;;;7.88;6.45;;;19.00;99.90;;;;;;6187235;23;20073;-86
2022/06/25 06:25:07;;;;;;;8.32;7.10;;;19.10;99.90;;;;;;6188019;23;20020;-87
2022/06/25 06:27:33;;;;;;;8.38;7.57;;;19.30;99.90;;;;;;6138810;23;20016;-87
2022/06/25 06:29:59;;;;;;;9.10;7.28;;;19.30;99.90;;;;;;6188617;23;20224;-87
2022/06/25 06:32:25;;;;;;;7.90;7.05;;;19.20;99.90;;;;;;6187998;23;20076;-86
2022/06/25 06:34:51;;;;;;;10.48;8.20;;;19.40;99.90;;;;;;6188940;23;20020;-86
2022/06/25 06:37:17;;;;;;;8.35;7.47;;;19.40;99.90;;;;;;6213719;23;20020;-86
2022/06/25 06:39:43;;;;;;;8.52;7.13;;;19.40;99.90;;;;;;6189570;23;20009;-86
2022/06/25 06:42:09;;;;;;;7.82;7.03;;;19.60;99.90;;;;;;6189392;23;20024;-87
2022/06/25 06:44:35;;;;;;;10.05;6.85;;;19.70;99.90;;;;;;6189825;23;20017;-87
2022/06/25 06:47:01;;;;;;;7.85;7.10;;;20.00;99.90;;;;;;6163260;23;20035;-88
2022/06/25 06:49:27;;;;;;;7.30;6.47;;;20.00;99.90;;;;;;6188294;23;20345;-88
2022/06/25 06:51:52;;;;;;;8.00;6.32;;;20.10;99.90;;;;;;6164167;23;20020;-87
2022/06/25 06:54:18;;;;;;;8.20;6.35;;;20.30;99.90;;;;;;6188122;23;20016;-86
2022/06/25 06:56:44;;;;;;;6.45;5.63;;;20.40;99.90;;;;;;6187157;23;20017;-87
2022/06/25 06:59:10;;;;;;;6.22;5.63;;;20.30;99.90;;;;;;6189288;23;20035;-86
2022/06/25 07:01:36;;;;;;;8.70;6.20;;;20.30;99.90;;;;;;6163228;23;20018;-85
2022/06/25 07:04:02;;;;;;;7.07;6.38;;;20.50;99.90;;;;;;6163464;23;20020;-86
2022/06/25 07:06:28;;;;;;;6.72;6.05;;;20.70;99.90;;;;;;6186861;23;20103;-86
2022/06/25 07:08:53;;;;;;;6.75;5.93;;;20.70;99.90;;;;;;6188466;23;20052;-88
2022/06/25 07:11:28;;;;;;;7.07;4.55;;;20.60;99.90;;;;;;6191038;23;20020;-86
2022/06/25 07:13:58;;;;;;;;;;;20.60;99.90;;;;;;6188017;23;20040;-87
2022/06/25 07:16:25;;;;;;;6.30;5.70;;;20.70;99.90;;;;;;6188173;23;19970;-87
2022/06/25 07:18:51;;;;;;;6.95;5.40;;;21.00;99.90;;;;;;6189512;23;20012;-86
2022/06/25 07:21:16;;;;;;;7.10;5.72;;;20.90;99.90;;;;;;6163110;23;20110;-87
2022/06/25 07:23:42;;;;;;;8.20;5.18;;;20.90;99.90;;;;;;6163711;23;20032;-86
2022/06/25 07:26:10;;;;;;;6.18;4.55;;;20.80;99.90;;;;;;6188826;23;20099;-88
2022/06/25 07:28:36;;;;;;;5.20;4.70;;;20.30;99.90;;;;;;6187886;23;20024;-87
2022/06/25 07:31:05;;;;;;;9.10;5.85;;;20.90;99.90;;;;;;6164630;23;20380;-87
2022/06/25 07:33:30;;;;;;;5.75;4.55;;;21.00;99.90;;;;;;6162511;23;20016;-87
2022/06/25 07:35:57;;;;;;;5.20;4.72;;;21.00;99.90;;;;;;6162721;23;20028;-87
2022/06/25 07:38:23;;;;;;;5.80;4.50;;;21.10;99.90;;;;;;6212840;23;20114;-86
2022/06/25 07:40:49;;;;;;;6.47;4.90;;;21.10;99.90;;;;;;6162326;23;20032;-88
2022/06/25 07:43:16;;;;;;;4.82;4.30;;;21.10;99.90;;;;;;6187314;23;20019;-87
2022/06/25 07:45:42;;;;;;;4.88;4.25;;;21.30;99.90;;;;;;6162549;23;20016;-87
2022/06/25 07:48:09;;;;;;;5.97;4.10;;;21.30;99.90;;;;;;6212704;23;20021;-87
2022/06/25 07:53:19;;;;;;;;;;;21.50;99.90;;;;;;6191916;23;20340;-87
2022/06/25 07:55:45;;;;;;;5.40;4.28;;;21.30;99.90;;;;;;6184902;23;19995;-87
2022/06/25 07:58:12;;;;;;;6.63;3.88;;;21.50;99.90;;;;;;6185939;23;20047;-88
2022/06/25 08:00:39;;;;;;;5.03;4.03;;;21.70;99.90;;;;;;6162598;23;20016;-87
2022/06/25 08:03:13;;;;;;;7.38;4.38;;;21.70;99.90;;;;;;6187446;23;20020;-88
2022/06/25 08:06:01;;;;;;;5.63;4.00;;;21.60;99.90;;;;;;6186222;23;20398;-89
2022/06/25 08:08:26;;;;;;;5.28;3.20;;;21.90;99.90;;;;;;6187617;23;20009;-88
2022/06/25 08:10:53;;;;;;;3.22;2.80;;;22.10;99.90;;;;;;6138406;23;20009;-87
2022/06/25 08:13:18;;;;;;;4.00;2.90;;;22.00;99.90;;;;;;6187049;23;20008;-87
2022/06/25 08:15:44;;;;;;;6.05;2.83;;;21.90;99.90;;;;;;6187853;23;20512;-89
2022/06/25 08:18:10;;;;;;;4.45;2.20;;;21.90;99.90;;;;;;6187062;23;20013;-89
2022/06/25 08:20:36;;;;;;;3.40;2.30;;;22.10;99.90;;;;;;6187407;23;20015;-88
2022/06/25 08:23:02;;;;;;;3.13;2.22;;;21.80;99.90;;;;;;6187152;23;20333;-88
2022/06/25 08:25:27;;;;;;;3.30;2.30;;;22.00;99.90;;;;;;6186985;23;20337;-88
2022/06/25 08:27:53;;;;;;;3.92;2.35;;;22.10;99.90;;;;;;6187718;23;20091;-88
2022/06/25 08:30:24;;;;;;;3.20;2.50;;;22.20;99.90;;;;;;6187526;23;20463;-87
2022/06/25 08:32:50;;;;;;;4.78;2.65;;;22.30;99.90;;;;;;6212245;23;20088;-88
2022/06/25 08:35:18;;;;;;;5.38;2.22;;;22.50;99.90;;;;;;6187496;23;20377;-88
2022/06/25 08:37:48;;;;;;;6.68;2.03;;;22.80;99.90;;;;;;6187222;23;20020;-87
2022/06/25 08:40:16;;;;;;;3.20;2.05;;;22.80;99.90;;;;;;6163425;23;20016;-88
2022/06/25 08:42:42;;;;;;;3.17;2.28;;;22.70;99.90;;;;;;6189417;23;20403;-87
2022/06/25 08:45:11;;;;;;;6.80;2.65;;;22.90;99.90;;;;;;6164973;23;20044;-88
2022/06/25 08:47:46;;;;;;;4.90;2.35;;;23.00;99.90;;;;;;6189399;23;20429;-88
2022/06/25 08:50:17;;;;;;;3.25;2.33;;;23.30;99.90;;;;;;6189411;23;20020;-87
2022/06/25 08:52:48;;;;;;;2.55;2.20;;;23.40;99.90;;;;;;6189330;23;20017;-85
2022/06/25 08:55:22;;;;;;;2.88;2.45;;;23.60;99.90;;;;;;6188848;23;20017;-87
2022/06/25 08:57:48;;;;;;;4.47;2.63;;;22.80;99.90;;;;;;6189813;23;20103;-87
2022/06/25 09:00:22;;;;;;;3.13;2.25;;;23.10;99.90;;;;;;6190185;23;20060;-88
2022/06/25 09:02:48;;;;;;;4.00;1.83;;;22.80;99.90;;;;;;6164112;23;20012;-87
2022/06/25 09:05:23;;;;;;;5.80;2.10;;;22.90;99.90;;;;;;6188622;23;20035;-87
2022/06/25 09:07:54;;;;;;;4.05;1.77;;;23.30;99.90;;;;;;6165196;23;20095;-87
2022/06/25 09:10:23;;;;;;;3.20;1.63;;;22.90;99.90;;;;;;6189132;23;20013;-88
2022/06/25 09:12:56;;;;;;;2.28;1.63;;;22.80;99.90;;;;;;6190134;23;20017;-88
2022/06/25 09:15:37;;;;;;;4.43;2.20;;;23.20;99.90;;;;;;6188184;23;20100;-88
2022/06/25 09:18:19;;;;;;;3.05;1.65;;;23.30;99.90;;;;;;6189444;23;20019;-89
2022/06/25 09:21:07;;;;;;;2.13;1.92;;;23.80;99.90;;;;;;6212686;23;20048;-88
2022/06/25 09:24:01;;;;;;;4.38;2.00;;;24.40;99.90;;;;;;6188266;23;20013;-87
2022/06/25 09:26:29;;;;;;;3.80;2.05;;;24.10;99.90;;;;;;6188519;23;20100;-87
2022/06/25 09:29:00;;;;;;;3.55;1.92;;;23.60;99.90;;;;;;6163874;23;20460;-89
2022/06/25 09:31:36;;;;;;;4.75;2.10;;;24.00;99.90;;;;;;6190129;23;20012;-88
2022/06/25 09:34:07;;;;;;;4.30;2.10;;;24.00;99.90;;;;;;6189225;23;20024;-87
2022/06/25 09:36:32;;;;;;;4.97;2.10;;;24.00;99.90;;;;;;6164326;23;20044;-88
2022/06/25 09:38:58;;;;;;;4.25;2.00;;;23.80;99.90;;;;;;6189207;23;20067;-87
2022/06/25 09:41:24;;;;;;;3.40;2.10;;;24.00;99.90;;;;;;6188854;23;20021;-87
2022/06/25 09:43:51;;;;;;;3.75;2.20;;;24.10;99.90;;;;;;6139416;23;20020;-89
2022/06/25 09:46:17;;;;;;;3.33;2.20;;;24.40;99.90;;;;;;6189083;23;20039;-88
2022/06/25 09:48:44;;;;;;;2.95;2.40;;;24.40;99.90;;;;;;6188035;23;20020;-90
2022/06/25 09:51:15;;;;;;;5.40;2.70;;;24.10;99.90;;;;;;6165168;23;20021;-89
2022/06/25 09:53:53;;;;;;;3.65;2.35;;;24.00;99.90;;;;;;6190071;23;20078;-87
2022/06/25 09:56:30;;;;;;;5.45;2.20;;;24.40;99.90;;;;;;6189277;23;20013;-86
2022/06/25 09:58:58;;;;;;;2.75;1.80;;;24.40;99.90;;;;;;6189089;23;20024;-89
2022/06/25 10:01:29;;;;;;;3.88;2.35;;;24.00;99.90;;;;;;6189080;23;20013;-88
2022/06/25 10:04:01;;;;;;;2.35;1.73;;;24.00;99.90;;;;;;6189327;23;20480;-86
2022/06/25 10:06:35;;;;;;;2.45;1.98;;;24.10;99.90;;;;;;6189171;23;20017;-88
2022/06/25 10:09:04;;;;;;;3.65;1.42;;;24.10;99.90;;;;;;6188591;23;20013;-87
2022/06/25 10:11:37;;;;;;;2.20;1.13;;;24.20;99.90;;;;;;6164037;23;20021;-87
2022/06/25 10:14:03;;;;;;;2.97;1.23;;;24.50;99.90;;;;;;6188699;23;20016;-85
2022/06/25 10:16:29;;;;;;;3.13;1.40;;;24.40;99.90;;;;;;6188458;23;20019;-87
2022/06/25 10:18:55;;;;;;;2.28;1.50;;;24.40;99.90;;;;;;6188166;23;20008;-87
2022/06/25 10:21:28;;;;;;;1.65;1.30;;;24.40;99.90;;;;;;6187627;23;20456;-85
2022/06/25 10:24:06;;;;;;;2.03;1.42;;;24.00;99.90;;;;;;6213320;23;20043;-88
2022/06/25 10:26:32;;;;;;;2.42;1.85;;;23.90;99.90;;;;;;6185440;23;20016;-86
2022/06/25 10:29:22;;;;;;;1.20;1.10;;;23.70;99.90;;;;;;6138382;23;20019;-87
2022/06/25 10:32:14;;;;;;;2.75;1.35;;;23.50;99.90;;;;;;6189529;23;20016;-87
2022/06/25 10:35:01;;;;;;;3.47;1.88;;;24.10;99.90;;;;;;6212876;23;20333;-86
2022/06/25 10:38:12;;;;;;;2.92;1.50;;;23.90;99.90;;;;;;6188371;23;20020;-86
2022/06/25 10:40:58;;;;;;;2.55;1.30;;;24.20;99.90;;;;;;6045664;23;20011;-88
2022/06/25 10:43:43;;;;;;;2.78;1.60;;;24.10;99.90;;;;;;6022539;23;20439;-87
2022/06/25 10:46:28;;;;;;;1.67;1.50;;;23.90;99.90;;;;;;6162866;23;20021;-87
2022/06/25 10:49:12;;;;;;;2.92;1.33;;;23.80;99.90;;;;;;6187798;23;20018;-87
2022/06/25 10:51:55;;;;;;;2.30;1.13;;;24.20;99.90;;;;;;6187290;23;20017;-88
2022/06/25 10:54:33;;;;;;;2.03;1.50;;;24.40;99.90;;;;;;6189909;23;20016;-87
2022/06/25 10:57:04;;;;;;;1.30;1.10;;;24.80;99.90;;;;;;6188057;23;20020;-89
2022/06/25 10:59:52;;;;;;;1.65;1.30;;;24.40;99.90;;;;;;6188891;23;20086;-87
2022/06/25 11:02:25;;;;;;;2.92;1.38;;;25.10;99.90;;;;;;6187947;23;20055;-87
2022/06/25 11:04:55;;;;;;;1.47;1.10;;;24.60;99.90;;;;;;6188323;23;20013;-87
2022/06/25 11:07:28;;;;;;;2.10;1.40;;;24.70;99.90;;;;;;6163435;23;20043;-87
2022/06/25 11:10:00;;;;;;;3.05;1.27;;;24.70;99.90;;;;;;6189736;23;20044;-86
2022/06/25 11:12:34;;;;;;;2.17;1.40;;;24.70;99.90;;;;;;6188838;23;20093;-87
2022/06/25 11:15:08;;;;;;;2.55;1.60;;;24.60;99.90;;;;;;6188355;23;20016;-87
2022/06/25 11:17:34;;;;;;;;;;;24.90;99.90;;;;;;6188407;23;20036;-89
2022/06/25 11:20:12;;;;;;;1.63;1.23;;;25.20;99.90;;;;;;6188591;23;19964;-87
2022/06/25 11:22:46;;;;;;;2.38;1.30;;;25.10;99.90;;;;;;6186691;23;20016;-86
2022/06/25 11:30:41;;;;;;;1.77;1.20;;;25.00;99.90;;;;;;6210714;23;20024;-88
2022/06/25 11:33:09;;;;;;;2.45;1.30;;;25.60;99.90;;;;;;6160931;23;20019;-86
2022/06/25 11:35:40;;;;;;;2.53;1.20;;;25.20;99.90;;;;;;6211063;23;20012;-87
2022/06/25 11:38:24;;;;;;;2.60;1.42;;;25.50;99.90;;;;;;6163605;23;20397;-88
2022/06/25 11:40:51;;;;;;;2.65;1.30;;;25.10;99.90;;;;;;6184675;23;20023;-88
2022/06/25 11:43:17;;;;;;;3.28;1.20;;;25.60;99.90;;;;;;6183732;23;20013;-87
2022/06/25 11:45:51;;;;;;;2.70;1.50;;;25.90;99.90;;;;;;6186338;23;20337;-88
2022/06/25 11:48:17;;;;;;;1.40;1.10;;;26.30;99.90;;;;;;6164605;23;20012;-86
2022/06/25 11:50:44;;;;;;;5.57;2.85;;;25.40;99.90;;;;;;6187756;23;20014;-88
2022/06/25 11:53:10;;;;;;;3.70;1.20;;;25.60;99.90;;;;;;6189057;23;20020;-87
2022/06/25 11:55:40;;;;;;;3.03;1.42;;;25.50;99.90;;;;;;6191996;23;20013;-87
2022/06/25 11:58:06;;;;;;;2.08;1.20;;;25.60;99.90;;;;;;6189106;23;20315;-87
2022/06/25 12:00:32;;;;;;;1.92;1.27;;;25.40;99.90;;;;;;6188165;23;20070;-88
2022/06/25 12:03:05;;;;;;;1.65;1.17;;;25.60;99.90;;;;;;6187552;23;20009;-87
2022/06/25 12:05:33;;;;;;;1.33;1.20;;;25.50;99.90;;;;;;6187483;23;20062;-89
2022/06/25 12:08:02;;;;;;;2.40;1.33;;;26.20;99.90;;;;;;6187627;23;20142;-88
2022/06/25 12:10:28;;;;;;;1.20;1.00;;;26.50;99.90;;;;;;6162415;23;20008;-87
2022/06/25 12:12:54;;;;;;;2.55;1.50;;;26.20;99.90;;;;;;6186814;23;20013;-89
2022/06/25 12:15:29;;;;;;;2.20;1.30;;;26.70;99.90;;;;;;6162544;23;20004;-88
2022/06/25 12:18:05;;;;;;;4.03;1.35;;;26.60;99.90;;;;;;6187198;23;20090;-88
2022/06/25 12:20:31;;;;;;;1.98;1.20;;;26.60;99.90;;;;;;6187387;23;20091;-88
2022/06/25 12:22:58;;;;;;;3.55;1.20;;;26.40;99.90;;;;;;6162698;23;20365;-87
2022/06/25 12:25:32;;;;;;;1.38;1.27;;;26.00;99.90;;;;;;6188307;23;20106;-88
2022/06/25 12:27:58;;;;;;;7.20;1.60;;;26.00;99.90;;;;;;6166018;23;20095;-88
2022/06/25 12:30:26;;;;;;;2.97;1.30;;;25.60;99.90;;;;;;6187429;23;20024;-88
2022/06/25 12:32:57;;;;;;;3.03;1.35;;;25.30;99.90;;;;;;6187230;23;20348;-88
2022/06/25 12:35:26;;;;;;;3.13;1.50;;;25.10;99.90;;;;;;6187862;23;20017;-90
2022/06/25 12:38:03;;;;;;;3.78;1.38;;;25.20;99.90;;;;;;6188355;23;20093;-88
2022/06/25 12:40:31;;;;;;;4.55;1.50;;;25.30;99.90;;;;;;6212328;23;20016;-88
2022/06/25 12:42:59;;;;;;;1.98;1.35;;;25.10;99.90;;;;;;6187848;23;20102;-89
2022/06/25 12:45:25;;;;;;;2.40;1.40;;;24.90;99.90;;;;;;6211115;23;20341;-87
2022/06/25 12:47:52;;;;;;;3.03;1.40;;;24.80;99.90;;;;;;6188031;23;20016;-91
2022/06/25 12:50:28;;;;;;;3.63;1.30;;;24.50;99.90;;;;;;6185815;23;20075;-91
2022/06/25 12:52:57;;;;;;;;;;;24.40;99.90;;;;;;6188686;23;20020;-87
2022/06/25 12:55:24;;;;;;;2.85;1.55;;;24.30;99.90;;;;;;6163380;23;20221;-87
2022/06/25 12:57:50;;;;;;;2.50;1.65;;;24.10;99.90;;;;;;6187462;23;20047;-86
2022/06/25 13:00:22;;;;;;;2.05;1.52;;;24.10;99.90;;;;;;6187449;23;20009;-87
2022/06/25 13:02:48;;;;;;;2.45;1.52;;;24.00;99.90;;;;;;6210511;23;20009;-89